Welcome to our Virtual Airline
Sign-in:

Flight MFC30291

  • Submitted By: Brad Allen
  • Departure Airport: Lloyd R. Roundtree Seaplane Facility (63A)
  • Arrival Airport: Kake SPB (KAE)
  • Aircraft: C185F (N185TMM)
  • Flight Time: 00.19.00
  • Date Submitted: 2019/02/22
  • Route: STOP AT PORTAGE BAY DOCK (TF11)
  • Status: Accepted
Flight Details
Gross Revenue:
(3 load / $ 50.00 per unit
$ 150.00
Fuel Cost:
(16.3293 fuel used @ 5.1 / unit)
$ 83.28

Additional Log Information:

View Log

FS[07:02] ----- Flight Opened -----
FS[07:02] Cigar Box - 1.1.4.0
FS[07:02] FS: Prepar3D V4
FS[07:02] FSUIPC: v5.15
FS[07:02] Flight Number: MFC30291
FS[07:02] FS Aircraft: C185F SKYWAGON AMPHIBIAN N2449F
FS[07:02] FS Model: C185
FS[07:02] FS Type: Cessna
FS[07:02] Departure: 63A
FS[07:02] Arrival: KAE
FS[07:02] Flight Level: 2500
FS[07:02] Flight Type: H
FS[07:02] Passengers: 3
FS[07:02] FOB: 384 lbs
FS[07:02] Gate: n/a
FS[07:02] NOTE: Parking Brake Ignored
FS[07:02] Crash Detection: Disabled
FS[07:02] Engines: 1 Piston
FS[07:02] NOTE: Boarding has started
FS[07:02] FS: Paused
FS[07:02] Engine 1: Started
FS[07:02] Light Data: Navigation ON
FS[07:02] Light Data: Beacon ON
FS[07:02] Light Data: Strobe lights ON
FS[07:02] Main Door Closed
FS[07:02] COM1: 128.30
FS[07:02] COM2: 127.80
FS[07:02] Transponder: 1200
FS[07:02] NAV1: 113.70
FS[07:02] NAV2: 110.60
FS[07:02] ADF1: 284.0
FS[07:02] ADF2: 240.0
FS[07:02] Navigation Mode: NAV
FS[07:02] FS: Unpaused
FS[07:02] Navigation Mode: GPS
FS[07:03] NOTE: Taxi started
FS[07:03] NOTE: ----- TAKE OFF -----
FS[07:03] GS: 68 knots
FS[07:03] TAS: 68 knots
FS[07:03] IAS: 68 knots
FS[07:03] VS: 5 fpm
FS[07:03] FOB: 383 lbs
FS[07:03] Heading: 16°
FS[07:03] Pitch: 4°
FS[07:03] Bank: 0°
FS[07:03] Aircraft Weight: 2488.89 lbs
FS[07:03] Nearest Airport: 63A
FS[07:03] Distance: 0.06 miles
FS[07:03] Runway: ???
FS[07:03] Ground Surface: Water
FS[07:03] Ground Condition: Snow
FS[07:03] NOTE: Weather Report
FS[07:03] Wind Heading: 337°
FS[07:03] Wind Speed: 0 knots
FS[07:03] OAT: 15° C
FS[07:03] TAT: 15° C
FS[07:03] Precipitation: None
FS[07:03] Dew Point: 5° C
FS[07:03] Visibility: 62 miles
FS[07:03] METAR: No METAR available for 63A.
FS[07:03] NOTE: Climb started
FS[07:03] View Mode: Virtual Cockpit
FS[07:04] Autopilot: Engaged
FS[07:04] AGL: 229 ft
FS[07:04] AMSL: 229 ft
FS[07:19] COM1: 122.90
FS[07:20] Autopilot: Disengaged
FS[07:20] AGL: 324 ft
FS[07:20] AMSL: 324 ft
FS[07:20] Flaps: Position 1
FS[07:20] GS: 73 knots
FS[07:20] TAS: 74 knots
FS[07:20] IAS: 73 knots
FS[07:20] VS: -186 fpm
FS[07:20] Flaps: Position 2
FS[07:20] GS: 68 knots
FS[07:20] TAS: 68 knots
FS[07:20] IAS: 68 knots
FS[07:20] VS: -43 fpm
FS[07:20] Flaps: Position 3
FS[07:20] GS: 60 knots
FS[07:20] TAS: 61 knots
FS[07:20] IAS: 61 knots
FS[07:20] VS: -186 fpm
FS[07:20] Flaps: Position 4
FS[07:20] GS: 56 knots
FS[07:20] TAS: 57 knots
FS[07:20] IAS: 57 knots
FS[07:20] VS: -254 fpm
FS[07:21] NOTE: ----- LANDED -----
FS[07:21] Landing Rate: -116.11 fpm
FS[07:21] GS: 44 knots
FS[07:21] TAS: 45 knots
FS[07:21] IAS: 45 knots
FS[07:21] VS: -115 fpm
FS[07:21] FOB: 348 lbs
FS[07:21] Heading: 292°
FS[07:21] Pitch: 7°
FS[07:21] Bank: 0°
FS[07:21] Aircraft Weight: 2453.94 lbs
FS[07:21] Nearest Airport: KAE
FS[07:21] Distance: 0.31 miles
FS[07:21] Runway: 28 - PAFE
FS[07:21] Ground Surface: Water
FS[07:21] Ground Condition: Snow
FS[07:21] NOTE: Weather Report
FS[07:21] Wind Heading: 337°
FS[07:21] Wind Speed: 0 knots
FS[07:21] OAT: 15° C
FS[07:21] TAT: 15° C
FS[07:21] Precipitation: None
FS[07:21] Dew Point: 5° C
FS[07:21] Visibility: 62 miles
FS[07:21] METAR: KAEG 221135Z AUTO 18012KT 10SM SCT100 01/M07 A2976 RMK AO2 T00071072KAEJ 221135Z AUTO 00000KT 3SM -SN SCT013 BKN019 OVC041 M07/M08 A2972 RMK AO2 T10671080KAEL 221135Z AUTO 00000KT 7SM OVC090 M12/M13 A3036 RMK AO2KAEX 221135Z 00000KT 2SM BR OVC003 09/09 A3000 RMK AO2 T00940094
FS[07:21] View Mode: Virtual Cockpit
FS[07:21] NOTE: Taxi started
FS[07:21] Flaps: Position 3
FS[07:21] Flaps: Position 2
FS[07:22] Engine 1: Stopped
FS[07:22] FS: Paused
FS[07:22] Gate: n/a
FS[07:22] NOTE: Flight Completed
FS[07:22] FS Aircraft: C185F SKYWAGON AMPHIBIAN N2449F
FS[07:22] FS Model: C185
FS[07:22] FS Type: Cessna
FS[07:22] FOB: 348 lbs
FS[07:22] Fuel Used: 36 lbs
FS[07:22] Flight Time: 00:19:00
FS[07:22] Flight Time (Dawn): 00:19:00
FS[07:22] Flight Time (Day): 00:00:00
FS[07:22] Flight Time (Dusk): 00:00:00
FS[07:22] Flight Time (Night): 00:00:00
FS[07:22] Total Landings: 1
FS[07:22] MaxSim Rate: 0x
FS[07:22] Cigar Box - 1.1.4.0
FS[07:22] ----- Flight Closed -----

Route Map